sensor_id;sensor_type;location;lat;lon;timestamp;P1;durP1;ratioP1;P2;durP2;ratioP2
47605;SDS011;55448;51.330;4.946;2022-07-06T00:02:02;7.95;;;3.67;;
47605;SDS011;55448;51.330;4.946;2022-07-06T00:04:28;9.13;;;3.50;;
47605;SDS011;55448;51.330;4.946;2022-07-06T00:06:54;8.52;;;3.60;;
47605;SDS011;55448;51.330;4.946;2022-07-06T00:09:20;6.88;;;3.50;;
47605;SDS011;55448;51.330;4.946;2022-07-06T00:11:45;8.13;;;3.85;;
47605;SDS011;55448;51.330;4.946;2022-07-06T00:14:11;12.63;;;3.83;;
47605;SDS011;55448;51.330;4.946;2022-07-06T00:16:37;6.85;;;3.50;;
47605;SDS011;55448;51.330;4.946;2022-07-06T00:19:02;8.90;;;4.20;;
47605;SDS011;55448;51.330;4.946;2022-07-06T00:21:28;6.78;;;3.67;;
47605;SDS011;55448;51.330;4.946;2022-07-06T00:23:54;9.80;;;3.80;;
47605;SDS011;55448;51.330;4.946;2022-07-06T00:26:19;8.43;;;3.75;;
47605;SDS011;55448;51.330;4.946;2022-07-06T00:28:45;8.90;;;3.67;;
47605;SDS011;55448;51.330;4.946;2022-07-06T00:31:11;8.70;;;4.15;;
47605;SDS011;55448;51.330;4.946;2022-07-06T00:33:40;9.30;;;4.22;;
47605;SDS011;55448;51.330;4.946;2022-07-06T00:36:06;8.95;;;3.95;;
47605;SDS011;55448;51.330;4.946;2022-07-06T00:38:31;8.27;;;4.32;;
47605;SDS011;55448;51.330;4.946;2022-07-06T00:40:57;12.75;;;3.92;;
47605;SDS011;55448;51.330;4.946;2022-07-06T00:43:23;11.45;;;4.30;;
47605;SDS011;55448;51.330;4.946;2022-07-06T00:45:48;10.18;;;3.95;;
47605;SDS011;55448;51.330;4.946;2022-07-06T00:48:14;15.15;;;4.55;;
47605;SDS011;55448;51.330;4.946;2022-07-06T00:50:40;7.15;;;4.28;;
47605;SDS011;55448;51.330;4.946;2022-07-06T00:53:06;7.82;;;4.40;;
47605;SDS011;55448;51.330;4.946;2022-07-06T00:55:35;8.15;;;3.90;;
47605;SDS011;55448;51.330;4.946;2022-07-06T00:58:04;7.40;;;4.68;;
47605;SDS011;55448;51.330;4.946;2022-07-06T01:00:31;9.80;;;4.47;;
47605;SDS011;55448;51.330;4.946;2022-07-06T01:02:57;13.10;;;4.28;;
47605;SDS011;55448;51.330;4.946;2022-07-06T01:05:23;7.85;;;4.85;;
47605;SDS011;55448;51.330;4.946;2022-07-06T01:07:49;8.82;;;4.78;;
47605;SDS011;55448;51.330;4.946;2022-07-06T01:10:17;8.23;;;5.00;;
47605;SDS011;55448;51.330;4.946;2022-07-06T01:12:44;10.80;;;5.80;;
47605;SDS011;55448;51.330;4.946;2022-07-06T01:15:15;9.05;;;5.15;;
47605;SDS011;55448;51.330;4.946;2022-07-06T01:17:42;10.15;;;4.97;;
47605;SDS011;55448;51.330;4.946;2022-07-06T01:22:42;11.45;;;4.95;;
47605;SDS011;55448;51.330;4.946;2022-07-06T01:25:09;11.02;;;5.00;;
47605;SDS011;55448;51.330;4.946;2022-07-06T01:27:36;6.70;;;4.65;;
47605;SDS011;55448;51.330;4.946;2022-07-06T01:30:07;11.40;;;5.65;;
47605;SDS011;55448;51.330;4.946;2022-07-06T01:32:35;7.55;;;5.43;;
47605;SDS011;55448;51.330;4.946;2022-07-06T01:35:01;12.25;;;5.45;;
47605;SDS011;55448;51.330;4.946;2022-07-06T01:37:28;13.55;;;5.65;;
47605;SDS011;55448;51.330;4.946;2022-07-06T01:39:53;8.13;;;5.53;;
47605;SDS011;55448;51.330;4.946;2022-07-06T01:42:22;17.35;;;7.50;;
47605;SDS011;55448;51.330;4.946;2022-07-06T01:44:48;8.25;;;5.47;;
47605;SDS011;55448;51.330;4.946;2022-07-06T01:47:13;11.10;;;5.40;;
47605;SDS011;55448;51.330;4.946;2022-07-06T01:49:39;9.73;;;6.10;;
47605;SDS011;55448;51.330;4.946;2022-07-06T01:52:05;11.07;;;5.43;;
47605;SDS011;55448;51.330;4.946;2022-07-06T01:54:31;14.27;;;6.03;;
47605;SDS011;55448;51.330;4.946;2022-07-06T01:56:56;10.55;;;6.32;;
47605;SDS011;55448;51.330;4.946;2022-07-06T01:59:22;14.05;;;6.25;;
47605;SDS011;55448;51.330;4.946;2022-07-06T02:01:48;10.38;;;6.28;;
47605;SDS011;55448;51.330;4.946;2022-07-06T02:04:13;8.80;;;5.65;;
47605;SDS011;55448;51.330;4.946;2022-07-06T02:06:39;14.85;;;7.38;;
47605;SDS011;55448;51.330;4.946;2022-07-06T02:09:04;17.50;;;6.82;;
47605;SDS011;55448;51.330;4.946;2022-07-06T02:11:30;9.57;;;6.05;;
47605;SDS011;55448;51.330;4.946;2022-07-06T02:13:56;11.50;;;6.53;;
47605;SDS011;55448;51.330;4.946;2022-07-06T02:16:21;10.02;;;7.38;;
47605;SDS011;55448;51.330;4.946;2022-07-06T02:18:47;13.25;;;6.53;;
47605;SDS011;55448;51.330;4.946;2022-07-06T02:21:13;16.73;;;7.15;;
47605;SDS011;55448;51.330;4.946;2022-07-06T02:23:38;15.43;;;7.55;;
47605;SDS011;55448;51.330;4.946;2022-07-06T02:26:04;10.70;;;6.35;;
47605;SDS011;55448;51.330;4.946;2022-07-06T02:28:30;20.30;;;8.07;;
47605;SDS011;55448;51.330;4.946;2022-07-06T02:30:55;13.18;;;6.72;;
47605;SDS011;55448;51.330;4.946;2022-07-06T02:33:21;11.77;;;7.05;;
47605;SDS011;55448;51.330;4.946;2022-07-06T02:35:47;7.97;;;6.40;;
47605;SDS011;55448;51.330;4.946;2022-07-06T02:38:12;11.38;;;7.32;;
47605;SDS011;55448;51.330;4.946;2022-07-06T02:40:38;10.20;;;7.32;;
47605;SDS011;55448;51.330;4.946;2022-07-06T02:43:04;14.95;;;6.70;;
47605;SDS011;55448;51.330;4.946;2022-07-06T02:45:30;12.10;;;7.30;;
47605;SDS011;55448;51.330;4.946;2022-07-06T02:47:56;13.93;;;7.32;;
47605;SDS011;55448;51.330;4.946;2022-07-06T02:50:22;12.82;;;6.75;;
47605;SDS011;55448;51.330;4.946;2022-07-06T02:52:49;10.38;;;6.53;;
47605;SDS011;55448;51.330;4.946;2022-07-06T02:55:14;13.70;;;7.20;;
47605;SDS011;55448;51.330;4.946;2022-07-06T02:57:40;15.77;;;7.53;;
47605;SDS011;55448;51.330;4.946;2022-07-06T03:00:06;13.82;;;7.53;;
47605;SDS011;55448;51.330;4.946;2022-07-06T03:02:34;12.95;;;7.72;;
47605;SDS011;55448;51.330;4.946;2022-07-06T03:05:00;14.00;;;7.82;;
47605;SDS011;55448;51.330;4.946;2022-07-06T03:07:25;15.65;;;8.13;;
47605;SDS011;55448;51.330;4.946;2022-07-06T03:09:51;13.95;;;7.75;;
47605;SDS011;55448;51.330;4.946;2022-07-06T03:12:17;14.75;;;7.65;;
47605;SDS011;55448;51.330;4.946;2022-07-06T03:14:42;16.38;;;7.82;;
47605;SDS011;55448;51.330;4.946;2022-07-06T03:17:08;10.75;;;7.28;;
47605;SDS011;55448;51.330;4.946;2022-07-06T03:19:34;15.52;;;7.30;;
47605;SDS011;55448;51.330;4.946;2022-07-06T03:22:00;15.10;;;7.82;;
47605;SDS011;55448;51.330;4.946;2022-07-06T03:24:25;14.82;;;7.28;;
47605;SDS011;55448;51.330;4.946;2022-07-06T03:26:51;17.20;;;7.75;;
47605;SDS011;55448;51.330;4.946;2022-07-06T03:29:17;14.80;;;7.57;;
47605;SDS011;55448;51.330;4.946;2022-07-06T03:31:43;13.55;;;7.50;;
47605;SDS011;55448;51.330;4.946;2022-07-06T03:34:09;15.43;;;7.30;;
47605;SDS011;55448;51.330;4.946;2022-07-06T03:36:34;9.43;;;6.68;;
47605;SDS011;55448;51.330;4.946;2022-07-06T03:39:00;13.88;;;7.30;;
47605;SDS011;55448;51.330;4.946;2022-07-06T03:41:26;13.02;;;7.13;;
47605;SDS011;55448;51.330;4.946;2022-07-06T03:43:51;9.45;;;6.70;;
47605;SDS011;55448;51.330;4.946;2022-07-06T03:46:17;11.80;;;6.72;;
47605;SDS011;55448;51.330;4.946;2022-07-06T03:48:42;10.63;;;6.25;;
47605;SDS011;55448;51.330;4.946;2022-07-06T03:51:08;23.83;;;6.93;;
47605;SDS011;55448;51.330;4.946;2022-07-06T03:53:35;8.55;;;6.28;;
47605;SDS011;55448;51.330;4.946;2022-07-06T03:56:01;10.43;;;6.60;;
47605;SDS011;55448;51.330;4.946;2022-07-06T03:58:46;10.48;;;6.78;;
47605;SDS011;55448;51.330;4.946;2022-07-06T04:01:11;8.75;;;6.05;;
47605;SDS011;55448;51.330;4.946;2022-07-06T04:03:37;16.48;;;7.47;;
47605;SDS011;55448;51.330;4.946;2022-07-06T04:06:03;12.25;;;7.25;;
47605;SDS011;55448;51.330;4.946;2022-07-06T04:08:29;11.00;;;6.30;;
47605;SDS011;55448;51.330;4.946;2022-07-06T04:10:55;9.07;;;5.82;;
47605;SDS011;55448;51.330;4.946;2022-07-06T04:13:20;9.35;;;5.85;;
47605;SDS011;55448;51.330;4.946;2022-07-06T04:15:46;14.73;;;5.93;;
47605;SDS011;55448;51.330;4.946;2022-07-06T04:18:12;9.93;;;5.75;;
47605;SDS011;55448;51.330;4.946;2022-07-06T04:20:38;11.15;;;5.70;;
47605;SDS011;55448;51.330;4.946;2022-07-06T04:23:04;12.02;;;5.65;;
47605;SDS011;55448;51.330;4.946;2022-07-06T04:25:29;11.13;;;5.78;;
47605;SDS011;55448;51.330;4.946;2022-07-06T04:27:55;8.00;;;5.30;;
47605;SDS011;55448;51.330;4.946;2022-07-06T04:30:27;5.70;;;4.60;;
47605;SDS011;55448;51.330;4.946;2022-07-06T04:32:53;7.47;;;4.93;;
47605;SDS011;55448;51.330;4.946;2022-07-06T04:35:20;15.07;;;5.07;;
47605;SDS011;55448;51.330;4.946;2022-07-06T04:37:46;10.05;;;5.50;;
47605;SDS011;55448;51.330;4.946;2022-07-06T04:40:12;10.48;;;4.80;;
47605;SDS011;55448;51.330;4.946;2022-07-06T04:42:38;8.88;;;4.85;;
47605;SDS011;55448;51.330;4.946;2022-07-06T04:45:04;14.13;;;4.80;;
47605;SDS011;55448;51.330;4.946;2022-07-06T04:47:30;9.95;;;4.35;;
47605;SDS011;55448;51.330;4.946;2022-07-06T04:49:56;9.50;;;4.35;;
47605;SDS011;55448;51.330;4.946;2022-07-06T04:52:21;9.00;;;4.65;;
47605;SDS011;55448;51.330;4.946;2022-07-06T04:54:47;8.00;;;4.15;;
47605;SDS011;55448;51.330;4.946;2022-07-06T04:57:13;10.18;;;4.30;;
47605;SDS011;55448;51.330;4.946;2022-07-06T04:59:39;8.80;;;4.13;;
47605;SDS011;55448;51.330;4.946;2022-07-06T05:02:04;9.55;;;3.92;;
47605;SDS011;55448;51.330;4.946;2022-07-06T05:04:30;11.27;;;4.20;;
47605;SDS011;55448;51.330;4.946;2022-07-06T05:06:56;10.98;;;4.78;;
47605;SDS011;55448;51.330;4.946;2022-07-06T05:09:22;6.50;;;3.83;;
47605;SDS011;55448;51.330;4.946;2022-07-06T05:11:48;7.88;;;3.78;;
47605;SDS011;55448;51.330;4.946;2022-07-06T05:14:13;9.50;;;4.35;;
47605;SDS011;55448;51.330;4.946;2022-07-06T05:16:39;5.55;;;3.40;;
47605;SDS011;55448;51.330;4.946;2022-07-06T05:19:05;11.05;;;3.88;;
47605;SDS011;55448;51.330;4.946;2022-07-06T05:21:30;7.72;;;3.85;;
47605;SDS011;55448;51.330;4.946;2022-07-06T05:23:56;7.28;;;3.75;;
47605;SDS011;55448;51.330;4.946;2022-07-06T05:26:22;8.82;;;4.22;;
47605;SDS011;55448;51.330;4.946;2022-07-06T05:28:47;9.00;;;3.92;;
47605;SDS011;55448;51.330;4.946;2022-07-06T05:31:13;10.07;;;4.18;;
47605;SDS011;55448;51.330;4.946;2022-07-06T05:33:39;6.50;;;3.40;;
47605;SDS011;55448;51.330;4.946;2022-07-06T05:36:04;8.15;;;3.80;;
47605;SDS011;55448;51.330;4.946;2022-07-06T05:38:30;5.70;;;3.50;;
47605;SDS011;55448;51.330;4.946;2022-07-06T05:40:57;8.05;;;3.58;;
47605;SDS011;55448;51.330;4.946;2022-07-06T05:43:22;11.13;;;3.90;;
47605;SDS011;55448;51.330;4.946;2022-07-06T05:45:49;8.52;;;2.45;;
47605;SDS011;55448;51.330;4.946;2022-07-06T05:48:14;4.18;;;2.55;;
47605;SDS011;55448;51.330;4.946;2022-07-06T05:50:59;6.35;;;3.08;;
47605;SDS011;55448;51.330;4.946;2022-07-06T05:53:24;5.32;;;2.78;;
47605;SDS011;55448;51.330;4.946;2022-07-06T05:55:50;8.35;;;2.30;;
47605;SDS011;55448;51.330;4.946;2022-07-06T05:58:16;4.63;;;2.20;;
47605;SDS011;55448;51.330;4.946;2022-07-06T06:00:42;6.32;;;2.10;;
47605;SDS011;55448;51.330;4.946;2022-07-06T06:03:08;9.98;;;2.30;;
47605;SDS011;55448;51.330;4.946;2022-07-06T06:05:34;5.97;;;1.95;;
47605;SDS011;55448;51.330;4.946;2022-07-06T06:08:00;7.50;;;2.17;;
47605;SDS011;55448;51.330;4.946;2022-07-06T06:10:25;5.03;;;2.33;;
47605;SDS011;55448;51.330;4.946;2022-07-06T06:12:51;4.13;;;1.98;;
47605;SDS011;55448;51.330;4.946;2022-07-06T06:15:17;5.40;;;2.00;;
47605;SDS011;55448;51.330;4.946;2022-07-06T06:17:44;6.15;;;2.00;;
47605;SDS011;55448;51.330;4.946;2022-07-06T06:20:10;6.13;;;1.85;;
47605;SDS011;55448;51.330;4.946;2022-07-06T06:22:50;4.93;;;2.00;;
47605;SDS011;55448;51.330;4.946;2022-07-06T06:28:02;4.35;;;1.80;;
47605;SDS011;55448;51.330;4.946;2022-07-06T06:30:29;5.25;;;1.80;;
47605;SDS011;55448;51.330;4.946;2022-07-06T06:35:37;5.05;;;1.77;;
47605;SDS011;55448;51.330;4.946;2022-07-06T06:38:13;4.65;;;1.80;;
47605;SDS011;55448;51.330;4.946;2022-07-06T06:40:39;4.65;;;1.73;;
47605;SDS011;55448;51.330;4.946;2022-07-06T06:43:05;4.85;;;1.90;;
47605;SDS011;55448;51.330;4.946;2022-07-06T06:45:31;4.85;;;1.88;;
47605;SDS011;55448;51.330;4.946;2022-07-06T06:47:57;5.53;;;2.13;;
47605;SDS011;55448;51.330;4.946;2022-07-06T06:50:23;6.30;;;1.80;;
47605;SDS011;55448;51.330;4.946;2022-07-06T06:52:49;4.55;;;1.88;;
47605;SDS011;55448;51.330;4.946;2022-07-06T06:55:16;5.60;;;1.80;;
47605;SDS011;55448;51.330;4.946;2022-07-06T06:57:43;6.35;;;1.95;;
47605;SDS011;55448;51.330;4.946;2022-07-06T07:00:09;4.35;;;1.70;;
47605;SDS011;55448;51.330;4.946;2022-07-06T07:02:35;3.70;;;1.85;;
47605;SDS011;55448;51.330;4.946;2022-07-06T07:05:01;5.60;;;2.05;;
47605;SDS011;55448;51.330;4.946;2022-07-06T07:07:27;7.22;;;1.25;;
47605;SDS011;55448;51.330;4.946;2022-07-06T07:09:53;4.93;;;1.20;;
47605;SDS011;55448;51.330;4.946;2022-07-06T07:12:19;4.55;;;1.45;;
47605;SDS011;55448;51.330;4.946;2022-07-06T07:14:44;5.78;;;1.40;;
47605;SDS011;55448;51.330;4.946;2022-07-06T07:17:10;8.20;;;1.48;;
47605;SDS011;55448;51.330;4.946;2022-07-06T07:19:37;4.40;;;1.50;;
47605;SDS011;55448;51.330;4.946;2022-07-06T07:22:03;7.57;;;1.70;;
47605;SDS011;55448;51.330;4.946;2022-07-06T07:24:28;2.22;;;1.42;;
47605;SDS011;55448;51.330;4.946;2022-07-06T07:26:54;13.05;;;1.00;;
47605;SDS011;55448;51.330;4.946;2022-07-06T07:29:20;1.60;;;0.95;;
47605;SDS011;55448;51.330;4.946;2022-07-06T07:31:46;4.75;;;1.08;;
47605;SDS011;55448;51.330;4.946;2022-07-06T07:34:12;5.13;;;0.90;;
47605;SDS011;55448;51.330;4.946;2022-07-06T07:36:38;4.13;;;0.82;;
47605;SDS011;55448;51.330;4.946;2022-07-06T07:39:04;1.35;;;0.80;;
47605;SDS011;55448;51.330;4.946;2022-07-06T07:41:30;3.00;;;0.82;;
47605;SDS011;55448;51.330;4.946;2022-07-06T07:43:56;3.13;;;1.00;;
47605;SDS011;55448;51.330;4.946;2022-07-06T07:46:22;4.18;;;1.10;;
47605;SDS011;55448;51.330;4.946;2022-07-06T07:48:47;2.00;;;1.17;;
47605;SDS011;55448;51.330;4.946;2022-07-06T07:51:13;4.38;;;1.20;;
47605;SDS011;55448;51.330;4.946;2022-07-06T07:53:39;0.77;;;0.77;;
47605;SDS011;55448;51.330;4.946;2022-07-06T07:56:05;2.22;;;0.80;;
47605;SDS011;55448;51.330;4.946;2022-07-06T07:58:30;3.83;;;1.02;;
47605;SDS011;55448;51.330;4.946;2022-07-06T08:00:56;4.18;;;1.25;;
47605;SDS011;55448;51.330;4.946;2022-07-06T08:03:22;2.67;;;0.77;;
47605;SDS011;55448;51.330;4.946;2022-07-06T08:05:47;1.85;;;0.70;;
47605;SDS011;55448;51.330;4.946;2022-07-06T08:08:15;1.55;;;0.85;;
47605;SDS011;55448;51.330;4.946;2022-07-06T08:10:40;1.95;;;0.90;;
47605;SDS011;55448;51.330;4.946;2022-07-06T08:13:06;1.80;;;0.98;;
47605;SDS011;55448;51.330;4.946;2022-07-06T08:15:34;5.00;;;0.82;;
47605;SDS011;55448;51.330;4.946;2022-07-06T08:18:00;3.83;;;0.80;;
47605;SDS011;55448;51.330;4.946;2022-07-06T08:20:26;3.30;;;1.00;;
47605;SDS011;55448;51.330;4.946;2022-07-06T08:22:51;2.38;;;0.98;;
47605;SDS011;55448;51.330;4.946;2022-07-06T08:25:17;2.83;;;1.00;;
47605;SDS011;55448;51.330;4.946;2022-07-06T08:27:43;2.03;;;0.65;;
47605;SDS011;55448;51.330;4.946;2022-07-06T08:30:09;2.65;;;0.90;;
47605;SDS011;55448;51.330;4.946;2022-07-06T08:32:42;1.23;;;0.60;;
47605;SDS011;55448;51.330;4.946;2022-07-06T08:35:08;2.05;;;0.90;;
47605;SDS011;55448;51.330;4.946;2022-07-06T08:37:35;1.90;;;0.85;;
47605;SDS011;55448;51.330;4.946;2022-07-06T08:40:01;1.95;;;1.00;;
47605;SDS011;55448;51.330;4.946;2022-07-06T08:42:32;3.88;;;0.93;;
47605;SDS011;55448;51.330;4.946;2022-07-06T08:44:59;3.45;;;1.08;;
47605;SDS011;55448;51.330;4.946;2022-07-06T08:47:26;18.77;;;1.95;;
47605;SDS011;55448;51.330;4.946;2022-07-06T08:49:52;3.80;;;1.10;;
47605;SDS011;55448;51.330;4.946;2022-07-06T08:52:19;5.40;;;1.25;;
47605;SDS011;55448;51.330;4.946;2022-07-06T08:54:45;3.67;;;0.80;;
47605;SDS011;55448;51.330;4.946;2022-07-06T08:57:11;1.63;;;0.77;;
47605;SDS011;55448;51.330;4.946;2022-07-06T08:59:38;3.58;;;0.85;;
47605;SDS011;55448;51.330;4.946;2022-07-06T09:02:04;2.38;;;0.85;;
47605;SDS011;55448;51.330;4.946;2022-07-06T09:04:30;2.58;;;0.95;;
47605;SDS011;55448;51.330;4.946;2022-07-06T09:06:58;2.25;;;0.82;;
47605;SDS011;55448;51.330;4.946;2022-07-06T09:09:24;1.42;;;0.80;;
47605;SDS011;55448;51.330;4.946;2022-07-06T09:11:51;4.25;;;1.10;;
47605;SDS011;55448;51.330;4.946;2022-07-06T09:14:17;2.28;;;0.98;;
47605;SDS011;55448;51.330;4.946;2022-07-06T09:16:44;4.20;;;0.98;;
47605;SDS011;55448;51.330;4.946;2022-07-06T09:19:11;2.40;;;0.77;;
47605;SDS011;55448;51.330;4.946;2022-07-06T09:21:38;3.78;;;1.15;;
47605;SDS011;55448;51.330;4.946;2022-07-06T09:24:07;2.28;;;0.90;;
47605;SDS011;55448;51.330;4.946;2022-07-06T09:26:34;2.35;;;0.80;;
47605;SDS011;55448;51.330;4.946;2022-07-06T09:29:01;4.47;;;1.20;;
47605;SDS011;55448;51.330;4.946;2022-07-06T09:31:27;1.10;;;0.90;;
47605;SDS011;55448;51.330;4.946;2022-07-06T09:33:56;4.53;;;0.90;;
47605;SDS011;55448;51.330;4.946;2022-07-06T09:36:38;3.70;;;0.95;;
47605;SDS011;55448;51.330;4.946;2022-07-06T09:41:47;4.97;;;1.10;;
47605;SDS011;55448;51.330;4.946;2022-07-06T09:44:20;3.75;;;0.80;;
47605;SDS011;55448;51.330;4.946;2022-07-06T09:46:50;1.38;;;0.82;;
47605;SDS011;55448;51.330;4.946;2022-07-06T09:49:18;2.55;;;0.90;;
47605;SDS011;55448;51.330;4.946;2022-07-06T09:51:45;4.05;;;1.17;;
47605;SDS011;55448;51.330;4.946;2022-07-06T09:54:11;2.28;;;0.80;;
47605;SDS011;55448;51.330;4.946;2022-07-06T09:59:16;1.98;;;1.08;;
47605;SDS011;55448;51.330;4.946;2022-07-06T10:01:46;0.95;;;0.82;;
47605;SDS011;55448;51.330;4.946;2022-07-06T10:04:15;2.25;;;0.70;;
47605;SDS011;55448;51.330;4.946;2022-07-06T10:06:43;2.78;;;0.90;;
47605;SDS011;55448;51.330;4.946;2022-07-06T10:09:10;3.92;;;1.10;;
47605;SDS011;55448;51.330;4.946;2022-07-06T10:11:37;1.67;;;0.82;;
47605;SDS011;55448;51.330;4.946;2022-07-06T10:14:34;1.95;;;0.90;;
47605;SDS011;55448;51.330;4.946;2022-07-06T10:17:00;3.38;;;0.90;;
47605;SDS011;55448;51.330;4.946;2022-07-06T10:19:28;1.00;;;0.90;;
47605;SDS011;55448;51.330;4.946;2022-07-06T10:21:59;0.85;;;0.82;;
47605;SDS011;55448;51.330;4.946;2022-07-06T10:24:25;7.78;;;1.10;;
47605;SDS011;55448;51.330;4.946;2022-07-06T10:26:53;1.33;;;0.90;;
47605;SDS011;55448;51.330;4.946;2022-07-06T10:29:20;6.63;;;1.05;;
47605;SDS011;55448;51.330;4.946;2022-07-06T10:31:47;1.67;;;0.98;;
47605;SDS011;55448;51.330;4.946;2022-07-06T10:34:14;3.60;;;0.90;;
47605;SDS011;55448;51.330;4.946;2022-07-06T10:36:43;3.67;;;0.90;;
47605;SDS011;55448;51.330;4.946;2022-07-06T10:39:13;2.45;;;1.13;;
47605;SDS011;55448;51.330;4.946;2022-07-06T10:41:57;1.27;;;0.77;;
47605;SDS011;55448;51.330;4.946;2022-07-06T10:44:24;1.67;;;1.00;;
47605;SDS011;55448;51.330;4.946;2022-07-06T10:46:57;1.83;;;0.88;;
47605;SDS011;55448;51.330;4.946;2022-07-06T10:49:24;5.30;;;0.90;;
47605;SDS011;55448;51.330;4.946;2022-07-06T10:51:51;2.08;;;0.90;;
47605;SDS011;55448;51.330;4.946;2022-07-06T10:54:18;2.45;;;1.00;;
47605;SDS011;55448;51.330;4.946;2022-07-06T10:56:46;1.58;;;1.10;;
47605;SDS011;55448;51.330;4.946;2022-07-06T10:59:23;2.15;;;0.90;;
47605;SDS011;55448;51.330;4.946;2022-07-06T11:04:44;2.50;;;0.98;;
47605;SDS011;55448;51.330;4.946;2022-07-06T11:07:13;4.75;;;1.17;;
47605;SDS011;55448;51.330;4.946;2022-07-06T11:09:40;1.80;;;0.60;;
47605;SDS011;55448;51.330;4.946;2022-07-06T11:12:18;1.83;;;0.95;;
47605;SDS011;55448;51.330;4.946;2022-07-06T11:14:46;2.70;;;0.90;;
47605;SDS011;55448;51.330;4.946;2022-07-06T11:17:14;2.00;;;0.90;;
47605;SDS011;55448;51.330;4.946;2022-07-06T11:19:50;2.78;;;1.35;;
47605;SDS011;55448;51.330;4.946;2022-07-06T11:22:23;3.13;;;1.02;;
47605;SDS011;55448;51.330;4.946;2022-07-06T11:24:51;1.80;;;1.10;;
47605;SDS011;55448;51.330;4.946;2022-07-06T11:27:18;4.72;;;1.08;;
47605;SDS011;55448;51.330;4.946;2022-07-06T11:29:44;2.95;;;1.25;;
47605;SDS011;55448;51.330;4.946;2022-07-06T11:32:10;2.28;;;1.00;;
47605;SDS011;55448;51.330;4.946;2022-07-06T11:34:40;2.03;;;1.08;;
47605;SDS011;55448;51.330;4.946;2022-07-06T11:37:08;3.88;;;1.20;;
47605;SDS011;55448;51.330;4.946;2022-07-06T11:39:39;3.88;;;1.20;;
47605;SDS011;55448;51.330;4.946;2022-07-06T11:42:09;2.38;;;1.05;;
47605;SDS011;55448;51.330;4.946;2022-07-06T11:44:36;3.17;;;1.08;;
47605;SDS011;55448;51.330;4.946;2022-07-06T11:47:03;4.15;;;1.20;;
47605;SDS011;55448;51.330;4.946;2022-07-06T11:49:30;1.77;;;0.90;;
47605;SDS011;55448;51.330;4.946;2022-07-06T11:51:56;1.90;;;0.90;;
47605;SDS011;55448;51.330;4.946;2022-07-06T11:54:23;4.53;;;1.10;;
47605;SDS011;55448;51.330;4.946;2022-07-06T11:56:53;1.10;;;0.95;;
47605;SDS011;55448;51.330;4.946;2022-07-06T11:59:21;2.42;;;1.10;;
47605;SDS011;55448;51.330;4.946;2022-07-06T12:01:48;4.07;;;0.80;;
47605;SDS011;55448;51.330;4.946;2022-07-06T12:04:14;3.97;;;1.02;;
47605;SDS011;55448;51.330;4.946;2022-07-06T12:06:40;2.75;;;1.05;;
47605;SDS011;55448;51.330;4.946;2022-07-06T12:09:08;3.13;;;1.13;;
47605;SDS011;55448;51.330;4.946;2022-07-06T12:11:34;3.92;;;1.20;;
47605;SDS011;55448;51.330;4.946;2022-07-06T12:14:02;2.95;;;1.42;;
47605;SDS011;55448;51.330;4.946;2022-07-06T12:16:38;5.28;;;1.20;;
47605;SDS011;55448;51.330;4.946;2022-07-06T12:19:05;2.17;;;1.13;;
47605;SDS011;55448;51.330;4.946;2022-07-06T12:21:32;4.55;;;1.67;;
47605;SDS011;55448;51.330;4.946;2022-07-06T12:23:59;2.83;;;1.02;;
47605;SDS011;55448;51.330;4.946;2022-07-06T12:26:25;4.25;;;1.20;;
47605;SDS011;55448;51.330;4.946;2022-07-06T12:29:04;3.80;;;1.20;;
47605;SDS011;55448;51.330;4.946;2022-07-06T12:31:35;5.03;;;1.17;;
47605;SDS011;55448;51.330;4.946;2022-07-06T12:34:11;3.90;;;1.20;;
47605;SDS011;55448;51.330;4.946;2022-07-06T12:39:14;4.82;;;1.75;;
47605;SDS011;55448;51.330;4.946;2022-07-06T12:41:46;4.07;;;1.45;;
47605;SDS011;55448;51.330;4.946;2022-07-06T12:44:15;1.60;;;0.90;;
47605;SDS011;55448;51.330;4.946;2022-07-06T12:46:43;2.80;;;0.90;;
47605;SDS011;55448;51.330;4.946;2022-07-06T12:49:22;4.05;;;0.90;;
47605;SDS011;55448;51.330;4.946;2022-07-06T12:54:20;1.52;;;1.00;;
47605;SDS011;55448;51.330;4.946;2022-07-06T12:56:57;5.82;;;0.77;;
47605;SDS011;55448;51.330;4.946;2022-07-06T12:59:23;2.28;;;1.17;;
47605;SDS011;55448;51.330;4.946;2022-07-06T13:01:49;2.70;;;1.10;;
47605;SDS011;55448;51.330;4.946;2022-07-06T13:04:21;2.42;;;0.98;;
47605;SDS011;55448;51.330;4.946;2022-07-06T13:06:46;5.00;;;1.30;;
47605;SDS011;55448;51.330;4.946;2022-07-06T13:09:12;4.72;;;0.80;;
47605;SDS011;55448;51.330;4.946;2022-07-06T13:11:40;2.55;;;0.80;;
47605;SDS011;55448;51.330;4.946;2022-07-06T13:14:05;1.20;;;0.77;;
47605;SDS011;55448;51.330;4.946;2022-07-06T13:16:31;3.97;;;1.10;;
47605;SDS011;55448;51.330;4.946;2022-07-06T13:18:59;1.75;;;0.90;;
47605;SDS011;55448;51.330;4.946;2022-07-06T13:21:25;2.55;;;1.15;;
47605;SDS011;55448;51.330;4.946;2022-07-06T13:23:51;2.47;;;1.13;;
47605;SDS011;55448;51.330;4.946;2022-07-06T13:26:16;2.35;;;1.15;;
47605;SDS011;55448;51.330;4.946;2022-07-06T13:28:42;3.42;;;1.00;;
47605;SDS011;55448;51.330;4.946;2022-07-06T13:31:08;4.10;;;1.20;;
47605;SDS011;55448;51.330;4.946;2022-07-06T13:33:34;1.80;;;0.90;;
47605;SDS011;55448;51.330;4.946;2022-07-06T13:36:00;1.50;;;0.75;;
47605;SDS011;55448;51.330;4.946;2022-07-06T13:38:26;5.65;;;1.50;;
47605;SDS011;55448;51.330;4.946;2022-07-06T13:40:52;8.30;;;1.40;;
47605;SDS011;55448;51.330;4.946;2022-07-06T13:43:19;3.22;;;1.13;;
47605;SDS011;55448;51.330;4.946;2022-07-06T13:45:48;3.22;;;1.13;;
47605;SDS011;55448;51.330;4.946;2022-07-06T13:48:13;2.33;;;0.93;;
47605;SDS011;55448;51.330;4.946;2022-07-06T13:50:39;10.10;;;1.38;;
47605;SDS011;55448;51.330;4.946;2022-07-06T13:53:05;3.65;;;1.00;;
47605;SDS011;55448;51.330;4.946;2022-07-06T13:55:31;4.93;;;1.08;;
47605;SDS011;55448;51.330;4.946;2022-07-06T13:57:58;5.32;;;1.73;;
47605;SDS011;55448;51.330;4.946;2022-07-06T14:00:24;1.80;;;1.08;;
47605;SDS011;55448;51.330;4.946;2022-07-06T14:02:50;3.08;;;1.08;;
47605;SDS011;55448;51.330;4.946;2022-07-06T14:05:15;2.45;;;1.13;;
47605;SDS011;55448;51.330;4.946;2022-07-06T14:07:41;5.82;;;1.20;;
47605;SDS011;55448;51.330;4.946;2022-07-06T14:10:07;5.32;;;0.98;;
47605;SDS011;55448;51.330;4.946;2022-07-06T14:12:33;2.95;;;0.85;;
47605;SDS011;55448;51.330;4.946;2022-07-06T14:14:59;2.00;;;1.08;;
47605;SDS011;55448;51.330;4.946;2022-07-06T14:17:26;10.57;;;1.20;;
47605;SDS011;55448;51.330;4.946;2022-07-06T14:19:52;2.42;;;1.08;;
47605;SDS011;55448;51.330;4.946;2022-07-06T14:22:17;3.67;;;1.35;;
47605;SDS011;55448;51.330;4.946;2022-07-06T14:24:43;2.53;;;0.80;;
47605;SDS011;55448;51.330;4.946;2022-07-06T14:27:09;2.30;;;0.80;;
47605;SDS011;55448;51.330;4.946;2022-07-06T14:29:34;2.22;;;0.93;;
47605;SDS011;55448;51.330;4.946;2022-07-06T14:32:00;4.50;;;1.40;;
47605;SDS011;55448;51.330;4.946;2022-07-06T14:34:26;3.88;;;0.95;;
47605;SDS011;55448;51.330;4.946;2022-07-06T14:36:53;3.15;;;1.00;;
47605;SDS011;55448;51.330;4.946;2022-07-06T14:39:18;3.17;;;1.13;;
47605;SDS011;55448;51.330;4.946;2022-07-06T14:41:44;1.80;;;0.90;;
47605;SDS011;55448;51.330;4.946;2022-07-06T14:44:10;2.47;;;1.23;;
47605;SDS011;55448;51.330;4.946;2022-07-06T14:46:35;4.97;;;1.23;;
47605;SDS011;55448;51.330;4.946;2022-07-06T14:49:01;4.28;;;1.48;;
47605;SDS011;55448;51.330;4.946;2022-07-06T14:51:27;3.88;;;1.30;;
47605;SDS011;55448;51.330;4.946;2022-07-06T14:53:52;3.25;;;1.10;;
47605;SDS011;55448;51.330;4.946;2022-07-06T14:56:18;3.60;;;1.50;;
47605;SDS011;55448;51.330;4.946;2022-07-06T14:58:44;4.95;;;1.60;;
47605;SDS011;55448;51.330;4.946;2022-07-06T15:01:10;5.55;;;1.77;;
47605;SDS011;55448;51.330;4.946;2022-07-06T15:03:36;3.50;;;1.55;;
47605;SDS011;55448;51.330;4.946;2022-07-06T15:06:02;4.20;;;1.45;;